Time;durP1;ratioP1;P1;durP2;ratioP2;P2;SDS_P1;SDS_P2;PMS_P1;PMS_P2;Temp;Humidity;BMP_temperature;BMP_pressure;BME280_temperature;BME280_humidity;BME280_pressure;Samples;Min_cycle;Max_cycle;Signal;HPM_P1;HPM_P2
2020/12/10 00:00:10;;;;;;;10.68;9.57;;;;;;;7.97;72.99;99407.91;4953867;28;97001;-65
2020/12/10 00:02:37;;;;;;;12.52;10.13;;;;;;;7.86;73.47;99401.53;4954633;28;97019;-64
2020/12/10 00:05:04;;;;;;;9.82;8.77;;;;;;;7.73;73.99;99412.66;4954837;28;98439;-65
2020/12/10 00:07:31;;;;;;;9.70;8.70;;;;;;;7.81;73.93;99405.28;4954174;28;97405;-66
2020/12/10 00:09:58;;;;;;;11.30;8.13;;;;;;;7.77;74.48;99406.34;4953943;28;96633;-66
2020/12/10 00:12:24;;;;;;;10.68;9.68;;;;;;;7.73;74.34;99399.66;4954855;28;96744;-66
2020/12/10 00:14:53;;;;;;;10.57;9.52;;;;;;;7.77;74.22;99399.41;4954140;28;98625;-66
2020/12/10 00:17:24;;;;;;;10.05;8.25;;;;;;;7.79;74.05;99400.19;4954191;28;98767;-66
2020/12/10 00:19:52;;;;;;;11.05;9.55;;;;;;;7.78;73.97;99398.50;4941142;28;97293;-65
2020/12/10 00:22:19;;;;;;;9.95;8.98;;;;;;;7.75;74.35;99393.47;4954013;28;99669;-66
2020/12/10 00:24:47;;;;;;;11.63;9.85;;;;;;;7.79;73.89;99397.59;4961225;28;101768;-64
2020/12/10 00:27:15;;;;;;;11.75;10.55;;;;;;;7.67;74.91;99394.78;4963323;28;97556;-64
2020/12/10 00:29:45;;;;;;;11.80;10.52;;;;;;;7.67;74.60;99393.03;4960515;28;96736;-64
2020/12/10 00:32:13;;;;;;;12.30;10.45;;;;;;;7.64;75.05;99395.78;4966734;28;96825;-64
2020/12/10 00:34:41;;;;;;;15.90;11.35;;;;;;;7.69;75.51;99396.38;4964962;28;98594;-64
2020/12/10 00:37:08;;;;;;;16.05;10.88;;;;;;;7.70;75.23;99392.03;4964370;28;98613;-64
2020/12/10 00:39:35;;;;;;;14.13;11.50;;;;;;;7.78;74.83;99398.50;4960598;28;96641;-64
2020/12/10 00:42:03;;;;;;;13.30;11.32;;;;;;;7.68;75.54;99391.28;4960938;28;96914;-65
2020/12/10 00:44:30;;;;;;;12.10;10.85;;;;;;;7.80;74.66;99386.28;4944358;28;98836;-65
2020/12/10 00:46:57;;;;;;;9.82;8.82;;;;;;;7.87;74.33;99387.63;4962805;28;98621;-66
2020/12/10 00:49:25;;;;;;;9.80;8.75;;;;;;;7.83;74.75;99388.75;4962892;28;99540;-65
2020/12/10 00:51:52;;;;;;;10.93;9.77;;;;;;;7.85;74.30;99389.47;4926636;28;98949;-65
2020/12/10 00:54:21;;;;;;;12.50;10.80;;;;;;;7.92;74.34;99394.34;4958682;28;100351;-66
2020/12/10 00:56:49;;;;;;;9.00;8.02;;;;;;;7.93;74.23;99391.66;4963194;28;97420;-65
2020/12/10 00:59:17;;;;;;;9.45;8.55;;;;;;;7.94;74.10;99395.97;4964403;28;98079;-65
2020/12/10 01:01:44;;;;;;;11.25;9.48;;;;;;;7.98;74.02;99412.19;4962169;28;99454;-65
2020/12/10 01:04:12;;;;;;;9.32;8.45;;;;;;;7.83;74.87;99404.31;4959226;28;97681;-65
2020/12/10 01:06:40;;;;;;;10.57;8.32;;;;;;;7.85;74.51;99404.22;4948646;28;97525;-65
2020/12/10 01:09:08;;;;;;;8.80;7.90;;;;;;;7.84;74.28;99413.75;4964626;28;96769;-65
2020/12/10 01:11:36;;;;;;;12.13;8.50;;;;;;;7.74;75.23;99412.56;4961588;28;96838;-66
2020/12/10 01:14:06;;;;;;;9.25;8.35;;;;;;;7.75;74.89;99416.81;4967357;28;99200;-64
2020/12/10 01:16:35;;;;;;;9.88;8.85;;;;;;;7.73;75.12;99421.25;4972821;28;97546;-64
2020/12/10 01:19:02;;;;;;;8.82;7.93;;;;;;;7.67;75.54;99428.50;4972915;28;96839;-64
2020/12/10 01:21:30;;;;;;;10.23;9.23;;;;;;;7.78;75.02;99421.88;4969916;28;96670;-63
2020/12/10 01:23:58;;;;;;;7.93;7.13;;;;;;;7.90;74.66;99422.16;4953259;28;97772;-65
2020/12/10 01:26:29;;;;;;;10.07;8.18;;;;;;;7.92;74.92;99420.28;4953391;28;98735;-64
2020/12/10 01:28:57;;;;;;;6.90;6.10;;;;;;;7.84;74.77;99416.34;4953219;28;97103;-64
2020/12/10 01:31:24;;;;;;;14.32;8.43;;;;;;;7.70;75.45;99416.22;4953203;28;96688;-65
2020/12/10 01:33:53;;;;;;;9.70;8.20;;;;;;;7.79;75.24;99417.50;4936180;28;97523;-65
2020/12/10 01:36:24;;;;;;;8.98;8.07;;;;;;;7.83;75.34;99416.44;4952526;28;97512;-65
2020/12/10 01:38:52;;;;;;;8.27;7.25;;;;;;;7.74;74.92;99422.09;4953097;28;96760;-64
2020/12/10 01:41:20;;;;;;;9.52;8.07;;;;;;;7.60;75.75;99420.19;4953071;28;96677;-65
2020/12/10 01:43:47;;;;;;;8.38;7.45;;;;;;;7.65;76.24;99412.19;4952884;28;97573;-65
2020/12/10 01:46:14;;;;;;;8.70;7.88;;;;;;;7.65;75.97;99415.63;4952430;28;97494;-65
2020/12/10 01:48:43;;;;;;;8.23;7.15;;;;;;;7.73;76.00;99415.25;4953349;28;96588;-65
2020/12/10 01:51:11;;;;;;;8.00;7.25;;;;;;;7.85;75.50;99404.22;4952782;28;97080;-65
2020/12/10 01:53:39;;;;;;;7.60;6.88;;;;;;;7.87;75.07;99403.19;4953052;28;97562;-65
2020/12/10 01:56:06;;;;;;;7.68;6.68;;;;;;;7.82;74.98;99393.97;4955258;28;98757;-65
2020/12/10 01:58:35;;;;;;;7.55;6.55;;;;;;;7.90;75.33;99391.84;4953402;28;96733;-65
2020/12/10 02:01:02;;;;;;;8.02;7.07;;;;;;;7.96;75.05;99388.09;4947626;28;96809;-65
2020/12/10 02:03:30;;;;;;;7.72;6.93;;;;;;;7.90;75.02;99391.00;4943862;28;100305;-65
2020/12/10 02:05:58;;;;;;;8.45;7.53;;;;;;;7.87;74.77;99385.03;4943898;28;97510;-63
2020/12/10 02:08:26;;;;;;;10.10;7.00;;;;;;;7.90;74.38;99385.81;4932589;28;97545;-63
2020/12/10 02:10:54;;;;;;;8.88;7.20;;;;;;;7.91;74.01;99377.94;4948394;28;99980;-65
2020/12/10 02:13:21;;;;;;;8.23;7.20;;;;;;;7.92;73.72;99382.22;4930664;28;100766;-65
2020/12/10 02:15:49;;;;;;;6.90;5.88;;;;;;;7.95;72.86;99376.03;4943891;28;97563;-64
2020/12/10 02:18:17;;;;;;;7.75;6.20;;;;;;;7.95;72.79;99378.63;4943268;28;96955;-64
2020/12/10 02:20:44;;;;;;;7.38;6.50;;;;;;;7.85;73.61;99373.06;4945559;28;97270;-65
2020/12/10 02:23:12;;;;;;;7.90;5.85;;;;;;;7.90;72.88;99378.88;4944605;28;99899;-63
2020/12/10 02:25:39;;;;;;;7.13;5.78;;;;;;;7.95;72.38;99373.44;4948463;28;98469;-64
2020/12/10 02:28:10;;;;;;;5.82;4.85;;;;;;;7.96;72.02;99375.09;4944081;28;97161;-65
2020/12/10 02:30:45;;;;;;;6.15;5.55;;;;;;;7.96;72.16;99362.97;4942788;28;97049;-65
2020/12/10 02:33:13;;;;;;;5.53;5.03;;;;;;;7.92;71.82;99371.00;4943298;28;97791;-65
2020/12/10 02:35:41;;;;;;;7.20;4.93;;;;;;;7.91;71.75;99372.75;4944118;28;97843;-64
2020/12/10 02:38:09;;;;;;;5.28;4.78;;;;;;;7.96;72.12;99369.91;4945736;28;98162;-63
2020/12/10 02:40:46;;;;;;;6.18;5.57;;;;;;;7.90;71.46;99367.66;4940431;28;96785;-64
2020/12/10 02:43:13;;;;;;;5.88;5.35;;;;;;;7.84;71.93;99359.28;4944923;28;98654;-64
2020/12/10 02:45:40;;;;;;;5.13;4.63;;;;;;;7.68;72.50;99358.41;4946275;28;98601;-64
2020/12/10 02:48:08;;;;;;;7.13;4.45;;;;;;;7.71;72.36;99353.03;4944476;28;99477;-65
2020/12/10 02:50:35;;;;;;;5.55;4.72;;;;;;;7.85;71.39;99355.75;4942763;28;96658;-64
2020/12/10 02:53:01;;;;;;;7.05;5.32;;;;;;;7.81;71.45;99351.63;4942926;28;98421;-64
2020/12/10 02:55:28;;;;;;;6.00;5.40;;;;;;;7.84;71.50;99359.28;4940906;28;99691;-65
2020/12/10 02:57:54;;;;;;;6.63;5.97;;;;;;;7.87;71.02;99360.84;4945213;28;96660;-64
2020/12/10 03:00:20;;;;;;;6.35;5.75;;;;;;;7.72;72.59;99359.88;4947781;28;97536;-64
2020/12/10 03:02:47;;;;;;;6.65;6.05;;;;;;;7.68;73.01;99360.16;4946075;28;98576;-64
2020/12/10 03:05:13;;;;;;;6.38;5.78;;;;;;;7.67;72.79;99354.13;4948445;28;98576;-64
2020/12/10 03:07:40;;;;;;;5.72;4.88;;;;;;;7.79;72.42;99350.88;4941982;28;99134;-64
2020/12/10 03:10:06;;;;;;;6.65;5.57;;;;;;;7.79;72.24;99352.66;4947283;28;96735;-64
2020/12/10 03:12:32;;;;;;;6.10;5.43;;;;;;;7.79;72.73;99352.66;4946571;28;99807;-64
2020/12/10 03:14:59;;;;;;;6.03;5.43;;;;;;;7.79;72.11;99345.69;4940506;28;98622;-64
2020/12/10 03:17:26;;;;;;;6.55;5.95;;;;;;;7.74;72.97;99344.28;4945614;28;97365;-64
2020/12/10 03:19:54;;;;;;;6.93;6.00;;;;;;;7.61;73.88;99336.28;4943235;28;99853;-64
2020/12/10 03:22:21;;;;;;;9.27;6.10;;;;;;;7.67;73.47;99343.75;4941854;28;98487;-64
2020/12/10 03:24:47;;;;;;;5.60;4.97;;;;;;;7.61;73.77;99344.88;4944745;28;98513;-64
2020/12/10 03:27:13;;;;;;;5.20;4.70;;;;;;;7.59;73.68;99340.72;4946614;28;97180;-64
2020/12/10 03:29:40;;;;;;;6.00;4.85;;;;;;;7.63;74.42;99344.00;4947159;28;96904;-64
2020/12/10 03:32:06;;;;;;;7.47;5.13;;;;;;;7.66;74.14;99344.66;4945345;28;100698;-65
2020/12/10 03:34:33;;;;;;;7.10;5.82;;;;;;;7.72;73.35;99346.09;4944118;28;98684;-65
2020/12/10 03:37:01;;;;;;;6.40;5.80;;;;;;;7.71;73.61;99342.66;4948324;28;97881;-65
2020/12/10 03:39:28;;;;;;;6.35;5.75;;;;;;;7.70;73.47;99338.38;4943828;28;97631;-65
2020/12/10 03:41:56;;;;;;;7.28;5.60;;;;;;;7.66;74.09;99336.88;4942144;28;98547;-65
2020/12/10 03:44:22;;;;;;;5.68;5.03;;;;;;;7.65;74.37;99329.19;4938447;28;98493;-65
2020/12/10 03:46:49;;;;;;;6.90;6.30;;;;;;;7.65;74.35;99332.59;4924654;28;96919;-65
2020/12/10 03:49:15;;;;;;;6.78;6.18;;;;;;;7.64;74.64;99333.53;4941704;28;98241;-65
2020/12/10 03:51:42;;;;;;;6.78;6.07;;;;;;;7.76;73.43;99332.03;4946665;28;98395;-63
2020/12/10 03:54:08;;;;;;;7.32;5.43;;;;;;;7.81;73.05;99336.06;4945300;28;98513;-63
2020/12/10 03:56:35;;;;;;;6.00;5.40;;;;;;;7.74;73.36;99339.91;4943208;28;96698;-63
2020/12/10 03:59:02;;;;;;;9.00;6.28;;;;;;;7.80;73.04;99337.00;4941875;28;97712;-63
2020/12/10 04:01:29;;;;;;;6.72;5.68;;;;;;;7.83;72.67;99336.00;4944317;28;98566;-64
2020/12/10 04:03:56;;;;;;;7.25;6.05;;;;;;;7.83;72.59;99338.59;4943470;28;98477;-64
2020/12/10 04:06:22;;;;;;;5.68;5.18;;;;;;;7.80;72.88;99342.19;4939047;28;100135;-64
2020/12/10 04:08:49;;;;;;;8.20;5.85;;;;;;;7.76;72.76;99343.25;4943089;28;96983;-65
2020/12/10 04:11:15;;;;;;;8.00;5.53;;;;;;;7.72;73.73;99339.13;4942909;28;100589;-65
2020/12/10 04:13:42;;;;;;;8.40;5.72;;;;;;;7.72;73.39;99340.91;4940212;28;97508;-65
2020/12/10 04:16:08;;;;;;;6.95;6.15;;;;;;;7.68;73.56;99340.25;4943722;28;98329;-64
2020/12/10 04:18:41;;;;;;;7.32;6.63;;;;;;;7.68;73.00;99344.59;4940787;28;97217;-64
2020/12/10 04:21:08;;;;;;;7.57;6.35;;;;;;;7.74;72.48;99347.69;4927877;28;98763;-62
2020/12/10 04:23:35;;;;;;;8.02;7.13;;;;;;;7.67;72.91;99343.75;4941860;28;98540;-64
2020/12/10 04:26:02;;;;;;;8.20;7.40;;;;;;;7.67;73.19;99348.94;4946641;28;98577;-65
2020/12/10 04:28:28;;;;;;;9.43;6.45;;;;;;;7.71;73.06;99341.81;4944465;28;97138;-65
2020/12/10 04:30:54;;;;;;;8.40;7.60;;;;;;;7.81;72.43;99343.84;4940504;28;98426;-65
2020/12/10 04:33:21;;;;;;;7.40;6.40;;;;;;;7.83;72.36;99343.78;4943360;28;98381;-65
2020/12/10 04:35:47;;;;;;;8.02;6.82;;;;;;;7.80;73.23;99342.19;4940720;28;97392;-64
2020/12/10 04:38:14;;;;;;;7.30;6.50;;;;;;;7.73;73.20;99348.63;4944030;28;99331;-64
2020/12/10 04:40:40;;;;;;;7.35;5.78;;;;;;;7.67;73.78;99351.53;4943565;28;98726;-64
2020/12/10 04:43:08;;;;;;;11.27;6.22;;;;;;;7.65;74.11;99347.34;4943023;28;99034;-64
2020/12/10 04:45:35;;;;;;;8.13;6.47;;;;;;;7.69;74.15;99343.66;4946363;28;96654;-64
2020/12/10 04:48:01;;;;;;;8.40;6.97;;;;;;;7.79;73.44;99348.28;4947807;28;97366;-65
2020/12/10 04:50:29;;;;;;;6.10;5.50;;;;;;;7.68;73.98;99349.78;4941642;28;98550;-65
2020/12/10 04:52:57;;;;;;;7.82;7.03;;;;;;;7.59;73.54;99351.91;4940829;28;99376;-65
2020/12/10 04:55:23;;;;;;;7.93;7.13;;;;;;;7.50;73.29;99348.97;4940982;28;96989;-65
2020/12/10 04:57:51;;;;;;;6.88;5.95;;;;;;;7.48;74.28;99348.22;4941685;28;96923;-65
2020/12/10 05:00:18;;;;;;;9.50;8.35;;;;;;;7.57;74.25;99351.19;4939710;28;98513;-63
2020/12/10 05:02:45;;;;;;;8.32;7.32;;;;;;;7.67;74.14;99353.28;4941997;28;98437;-64
2020/12/10 05:05:32;;;;;;;9.00;7.55;;;;;;;7.70;74.02;99355.72;4946847;28;97638;-64
2020/12/10 05:08:02;;;;;;;8.63;7.78;;;;;;;7.64;74.06;99349.09;4941523;28;96693;-64
2020/12/10 05:10:28;;;;;;;12.55;8.20;;;;;;;7.69;74.51;99360.06;4941470;28;98587;-64
2020/12/10 05:13:08;;;;;;;7.25;6.05;;;;;;;7.80;73.44;99349.13;4928922;28;98707;-64
2020/12/10 05:15:35;;;;;;;7.72;6.93;;;;;;;7.69;74.11;99349.69;4947690;28;97297;-63
2020/12/10 05:18:09;;;;;;;7.43;6.63;;;;;;;7.57;74.69;99350.34;4946290;28;96783;-64
2020/12/10 05:20:39;;;;;;;6.82;6.20;;;;;;;7.69;73.99;99352.28;4947015;28;98463;-64
2020/12/10 05:23:07;;;;;;;9.13;7.10;;;;;;;7.74;74.67;99354.66;4952835;28;99076;-64
2020/12/10 05:25:52;;;;;;;7.45;6.60;;;;;;;7.80;73.41;99349.13;4953081;28;97284;-63
2020/12/10 05:28:19;;;;;;;;;;;;;;;7.78;73.76;99350.97;4953811;28;96899;-62
2020/12/10 05:31:05;;;;;;;7.57;6.70;;;;;;;7.76;73.96;99353.63;4954008;28;98382;-64
2020/12/10 05:33:32;;;;;;;8.48;7.30;;;;;;;7.80;73.72;99347.38;4935576;28;98646;-64
2020/12/10 05:36:12;;;;;;;8.10;7.30;;;;;;;7.87;73.28;99356.50;4956190;28;96971;-64
2020/12/10 05:39:04;;;;;;;8.73;7.63;;;;;;;7.78;73.80;99345.78;4957502;28;96873;-64
2020/12/10 05:41:32;;;;;;;7.50;6.13;;;;;;;7.75;73.80;99345.94;4954382;28;97602;-65
2020/12/10 05:44:18;;;;;;;8.60;7.60;;;;;;;7.78;73.41;99356.16;4955611;28;98482;-64
2020/12/10 05:46:45;;;;;;;8.63;7.00;;;;;;;7.83;73.24;99359.34;4949224;28;96590;-64
2020/12/10 05:49:13;;;;;;;9.30;7.93;;;;;;;7.76;74.05;99357.97;4958688;28;96554;-64
2020/12/10 05:51:43;;;;;;;7.32;6.50;;;;;;;7.73;74.35;99360.75;4955098;28;98447;-64
2020/12/10 05:54:10;;;;;;;8.38;7.57;;;;;;;7.74;74.09;99360.66;4954632;28;98559;-64
2020/12/10 05:56:45;;;;;;;6.93;6.22;;;;;;;7.80;74.04;99360.34;4960036;28;97343;-64
2020/12/10 05:59:12;;;;;;;8.52;7.55;;;;;;;7.80;74.10;99362.94;4942685;28;96692;-75
2020/12/10 06:01:38;;;;;;;8.38;7.47;;;;;;;7.71;74.74;99357.38;4918421;28;98629;-74
2020/12/10 06:04:04;;;;;;;8.57;7.15;;;;;;;7.73;74.37;99358.16;4953897;28;98982;-65
2020/12/10 06:06:31;;;;;;;10.25;7.43;;;;;;;7.84;73.98;99363.63;4938397;28;96495;-67
2020/12/10 06:09:03;;;;;;;8.40;7.35;;;;;;;7.85;74.04;99368.72;4939079;28;96696;-67
2020/12/10 06:11:29;;;;;;;7.45;6.68;;;;;;;7.81;73.61;99367.19;4955839;28;97386;-65
2020/12/10 06:14:01;;;;;;;7.13;6.35;;;;;;;7.84;73.56;99361.88;4954991;28;98838;-66
2020/12/10 06:16:27;;;;;;;8.23;7.35;;;;;;;7.98;72.93;99363.72;4956290;28;96628;-67
2020/12/10 06:19:03;;;;;;;5.88;5.30;;;;;;;7.99;72.31;99365.41;4955835;28;96599;-66
2020/12/10 06:21:50;;;;;;;6.95;5.82;;;;;;;8.01;72.46;99373.09;4955434;28;98658;-66
2020/12/10 06:24:25;;;;;;;7.43;6.22;;;;;;;7.85;73.88;99365.28;4945791;28;98644;-63
2020/12/10 06:26:57;;;;;;;7.38;5.93;;;;;;;7.75;74.62;99370.13;4955488;28;96617;-60
2020/12/10 06:29:25;;;;;;;8.60;6.25;;;;;;;7.78;74.65;99372.56;4955822;28;96613;-69
2020/12/10 06:32:10;;;;;;;7.13;5.95;;;;;;;7.80;74.07;99368.13;4956065;28;98496;-66
2020/12/10 06:34:38;;;;;;;10.85;6.55;;;;;;;7.81;74.23;99366.38;4953040;28;98569;-66
2020/12/10 06:37:31;;;;;;;8.35;7.32;;;;;;;7.70;74.67;99373.88;4954898;28;96602;-63
2020/12/10 06:39:59;;;;;;;6.45;5.80;;;;;;;7.73;74.88;99363.34;4949544;28;96753;-66
2020/12/10 06:42:26;;;;;;;6.53;5.93;;;;;;;7.67;75.21;99372.28;4939983;28;98532;-65
2020/12/10 06:44:52;;;;;;;6.20;5.60;;;;;;;7.74;75.24;99375.41;4950115;28;98702;-65
2020/12/10 06:47:19;;;;;;;6.90;5.93;;;;;;;7.76;75.04;99373.56;4951593;28;96628;-65
2020/12/10 06:49:45;;;;;;;8.00;6.03;;;;;;;7.76;74.37;99369.19;4939212;28;97022;-64
2020/12/10 06:52:12;;;;;;;12.13;7.68;;;;;;;7.78;74.70;99376.94;4932899;28;98811;-65
2020/12/10 06:55:08;;;;;;;8.57;7.32;;;;;;;7.83;74.99;99382.72;4953411;28;98634;-65
2020/12/10 06:57:59;;;;;;;;;;;;;;;7.88;74.69;99389.34;4953174;28;96844;-68
2020/12/10 07:00:46;;;;;;;9.70;6.57;;;;;;;7.88;74.14;99386.75;4948126;28;96577;-68
2020/12/10 07:03:18;;;;;;;9.52;6.30;;;;;;;7.85;74.44;99391.25;4953056;28;97620;-69
2020/12/10 07:05:46;;;;;;;9.63;7.13;;;;;;;7.91;74.51;99395.28;4955388;28;98447;-71
2020/12/10 07:08:21;;;;;;;8.38;7.22;;;;;;;8.03;73.58;99392.03;4953279;28;97345;-70
2020/12/10 07:10:50;;;;;;;9.57;7.93;;;;;;;8.13;72.89;99398.41;4955885;28;96602;-68
2020/12/10 07:13:17;;;;;;;9.43;7.85;;;;;;;8.05;72.99;99390.19;4954190;28;98592;-68
2020/12/10 07:15:50;;;;;;;11.25;8.48;;;;;;;8.04;73.75;99391.09;4954810;28;98763;-68
2020/12/10 07:18:16;;;;;;;13.82;10.38;;;;;;;8.03;74.06;99394.63;4955264;28;96665;-68
2020/12/10 07:20:44;;;;;;;24.67;10.95;;;;;;;8.11;73.79;99395.06;4955115;28;97154;-68
2020/12/10 07:23:10;;;;;;;10.23;7.93;;;;;;;8.13;73.25;99394.03;4970789;28;98384;-68
2020/12/10 07:25:36;;;;;;;11.30;8.27;;;;;;;8.18;72.31;99401.59;4972958;28;98681;-68
2020/12/10 07:28:03;;;;;;;10.23;8.95;;;;;;;8.19;72.28;99394.63;4956971;28;98340;-68
2020/12/10 07:30:30;;;;;;;11.23;8.40;;;;;;;8.19;72.57;99392.03;4974337;28;96700;-68
2020/12/10 07:32:58;;;;;;;8.88;6.30;;;;;;;8.16;72.58;99392.22;4974365;28;98845;-68
2020/12/10 07:35:34;;;;;;;8.52;6.55;;;;;;;8.12;72.21;99400.16;4973860;28;98547;-68
2020/12/10 07:38:11;;;;;;;10.10;6.82;;;;;;;8.19;71.85;99385.09;4968890;28;96554;-68
2020/12/10 07:40:39;;;;;;;8.10;6.40;;;;;;;8.21;71.33;99392.81;4974629;28;96622;-69
2020/12/10 07:43:06;;;;;;;7.90;6.18;;;;;;;8.18;71.43;99396.41;4973773;28;98507;-69
2020/12/10 07:45:33;;;;;;;5.85;5.22;;;;;;;8.24;71.71;99396.06;4974636;28;98454;-68
2020/12/10 07:48:01;;;;;;;5.35;4.82;;;;;;;8.29;70.60;99391.47;4964970;28;97535;-68
2020/12/10 07:50:29;;;;;;;6.55;5.38;;;;;;;8.33;70.87;99395.56;4962068;28;99928;-68
2020/12/10 07:52:58;;;;;;;5.15;4.50;;;;;;;8.32;71.42;99391.31;4963933;28;98639;-68
2020/12/10 07:55:26;;;;;;;6.47;5.70;;;;;;;8.35;71.20;99403.28;4961036;28;98714;-68
2020/12/10 07:57:57;;;;;;;19.77;6.13;;;;;;;8.29;71.86;99404.44;4959227;28;98019;-69
2020/12/10 08:00:26;;;;;;;6.70;5.90;;;;;;;8.28;71.83;99396.75;4961574;28;99937;-68
2020/12/10 08:03:24;;;;;;;6.93;5.80;;;;;;;8.32;71.50;99408.66;4932515;28;98723;-68
2020/12/10 08:06:10;;;;;;;7.55;6.75;;;;;;;8.38;71.45;99409.19;4955664;28;98839;-68
2020/12/10 08:08:42;;;;;;;6.43;5.35;;;;;;;8.43;70.70;99403.75;4945045;28;96883;-68
2020/12/10 08:11:14;;;;;;;4.68;4.13;;;;;;;8.45;70.62;99404.47;4966310;28;96612;-69
2020/12/10 08:14:00;;;;;;;5.13;4.10;;;;;;;8.39;71.44;99410.00;4957501;28;98539;-68
2020/12/10 08:16:39;;;;;;;7.18;4.68;;;;;;;8.38;70.78;99408.34;4960089;28;99024;-68
2020/12/10 08:19:15;;;;;;;8.43;5.30;;;;;;;8.35;71.92;99414.50;4961278;28;96704;-68
2020/12/10 08:21:43;;;;;;;5.93;4.68;;;;;;;8.40;72.01;99412.53;4958876;28;96852;-68
2020/12/10 08:24:14;;;;;;;6.53;5.85;;;;;;;8.37;72.29;99425.69;4943739;28;100016;-68
2020/12/10 08:26:41;;;;;;;4.97;4.30;;;;;;;8.37;71.82;99430.88;4939575;28;100585;-68
2020/12/10 08:29:14;;;;;;;5.80;5.13;;;;;;;8.43;71.90;99426.28;4946929;28;96681;-68
2020/12/10 08:31:41;;;;;;;5.07;4.57;;;;;;;8.48;71.70;99419.91;4943017;28;96913;-68
2020/12/10 08:34:17;;;;;;;7.68;4.90;;;;;;;8.55;71.57;99421.25;4944461;28;98579;-68
2020/12/10 08:36:43;;;;;;;6.03;5.43;;;;;;;8.58;71.37;99422.84;4943546;28;98593;-68
2020/12/10 08:39:09;;;;;;;6.18;4.75;;;;;;;8.49;71.51;99428.53;4940836;28;97429;-67
2020/12/10 08:41:36;;;;;;;6.55;5.35;;;;;;;8.48;72.17;99429.47;4943409;28;96670;-68
2020/12/10 08:44:07;;;;;;;7.25;4.68;;;;;;;8.62;70.34;99427.78;4940313;28;99521;-67
2020/12/10 08:46:35;;;;;;;7.95;5.78;;;;;;;8.57;71.31;99431.53;4941154;28;98625;-66
2020/12/10 08:49:34;;;;;;;12.02;7.60;;;;;;;8.57;71.17;99426.34;4941918;28;96713;-69
2020/12/10 08:52:01;;;;;;;7.18;5.72;;;;;;;8.55;71.70;99433.41;4901731;28;97891;-69
2020/12/10 08:54:30;;;;;;;8.38;6.63;;;;;;;8.62;71.84;99437.31;4941240;28;98627;-69
2020/12/10 08:57:01;;;;;;;13.73;7.95;;;;;;;8.46;71.25;99431.28;4922869;28;98481;-69
2020/12/10 08:59:29;;;;;;;10.93;6.22;;;;;;;8.45;71.56;99435.66;4943025;28;97378;-68
2020/12/10 09:01:57;;;;;;;7.63;6.40;;;;;;;8.49;71.69;99437.16;4940556;28;99953;-67
2020/12/10 09:04:24;;;;;;;12.02;7.80;;;;;;;8.54;70.91;99431.72;4941215;28;98501;-68
2020/12/10 09:06:50;;;;;;;12.35;8.23;;;;;;;8.57;71.37;99434.13;4942528;28;98675;-69
2020/12/10 09:09:17;;;;;;;10.02;7.90;;;;;;;8.60;71.04;99433.97;4937661;28;96794;-69
2020/12/10 09:11:46;;;;;;;9.00;7.18;;;;;;;8.76;71.46;99433.97;4945345;28;97521;-68
2020/12/10 09:14:14;;;;;;;7.72;6.82;;;;;;;8.76;70.82;99434.81;4943878;28;98788;-68
2020/12/10 09:16:46;;;;;;;7.75;6.80;;;;;;;8.77;70.92;99441.69;4947807;28;98411;-68
2020/12/10 09:19:13;;;;;;;7.85;6.82;;;;;;;8.76;70.46;99444.38;4948078;28;97635;-68
2020/12/10 09:21:39;;;;;;;15.65;8.23;;;;;;;8.73;69.49;99440.16;4946642;28;97945;-68
2020/12/10 09:24:06;;;;;;;8.50;7.30;;;;;;;8.81;69.55;99443.19;4945862;28;98475;-68
2020/12/10 09:26:32;;;;;;;7.90;6.50;;;;;;;8.84;69.34;99452.56;4946571;28;98761;-68
2020/12/10 09:28:58;;;;;;;8.85;6.95;;;;;;;8.75;69.63;99453.94;4946954;28;97468;-69
2020/12/10 09:31:26;;;;;;;13.20;8.27;;;;;;;8.75;69.53;99453.94;4944141;28;99577;-70
2020/12/10 09:33:52;;;;;;;9.10;7.63;;;;;;;8.78;69.54;99455.50;4942993;28;100420;-69
2020/12/10 09:36:19;;;;;;;7.43;6.07;;;;;;;8.78;69.71;99452.91;4946363;28;98728;-67
2020/12/10 09:38:45;;;;;;;8.27;7.38;;;;;;;8.89;69.17;99456.63;4931651;28;98222;-70
2020/12/10 09:41:12;;;;;;;15.88;10.50;;;;;;;8.72;69.75;99454.09;4942748;28;96834;-68
2020/12/10 09:43:38;;;;;;;17.27;11.32;;;;;;;8.73;70.23;99450.56;4941649;28;98562;-69
2020/12/10 09:46:09;;;;;;;11.15;7.78;;;;;;;8.82;68.57;99439.66;4946359;28;98396;-69
2020/12/10 09:48:36;;;;;;;8.10;7.25;;;;;;;8.79;68.58;99439.84;4943317;28;96751;-69
2020/12/10 09:51:03;;;;;;;7.93;5.85;;;;;;;8.81;69.30;99440.59;4948665;28;99525;-69
2020/12/10 09:53:40;;;;;;;6.40;5.55;;;;;;;8.85;69.39;99439.50;4930832;28;100135;-69
2020/12/10 09:58:38;;;;;;;11.80;8.63;;;;;;;8.91;68.58;99433.97;4931650;28;99294;-69
2020/12/10 10:01:08;;;;;;;11.63;8.52;;;;;;;8.81;69.22;99430.19;4926792;28;97022;-69
2020/12/10 10:03:34;;;;;;;10.80;8.40;;;;;;;8.66;69.89;99431.88;4942723;28;98619;-69
2020/12/10 10:06:01;;;;;;;11.05;8.82;;;;;;;8.77;70.28;99430.44;4946214;28;101661;-69
2020/12/10 10:08:29;;;;;;;9.90;7.70;;;;;;;8.80;70.29;99425.94;4939652;28;97531;-68
2020/12/10 10:10:56;;;;;;;15.35;11.20;;;;;;;8.86;71.13;99433.38;4946525;28;98595;-69
2020/12/10 10:13:42;;;;;;;15.38;11.23;;;;;;;8.94;70.00;99432.94;4928744;28;98451;-69
2020/12/10 10:16:08;;;;;;;12.00;9.18;;;;;;;8.97;69.58;99421.56;4944412;28;100493;-68
2020/12/10 10:18:35;;;;;;;14.73;8.43;;;;;;;8.93;69.59;99420.88;4943952;28;97487;-69
2020/12/10 10:21:10;;;;;;;15.07;8.90;;;;;;;8.96;69.79;99425.91;4941440;28;97427;-67
2020/12/10 10:23:37;;;;;;;11.50;8.60;;;;;;;8.86;69.95;99420.38;4941933;28;97925;-68
2020/12/10 10:26:05;;;;;;;15.80;10.05;;;;;;;8.89;70.01;99417.63;4942180;28;98669;-69
2020/12/10 10:28:54;;;;;;;16.33;9.68;;;;;;;8.92;69.92;99416.59;4920211;28;97840;-69
2020/12/10 10:31:24;;;;;;;17.45;12.65;;;;;;;9.00;70.04;99410.97;4942500;28;99995;-68
2020/12/10 10:33:50;;;;;;;14.25;9.60;;;;;;;8.96;70.53;99410.31;4943393;28;100234;-68
2020/12/10 10:36:22;;;;;;;17.00;11.50;;;;;;;8.90;70.65;99416.69;4944734;28;98638;-68
2020/12/10 10:38:48;;;;;;;17.92;11.50;;;;;;;8.83;70.80;99410.16;4944285;28;96662;-68
2020/12/10 10:41:15;;;;;;;18.15;11.45;;;;;;;8.96;70.70;99409.47;4947531;28;99793;-68
2020/12/10 10:43:43;;;;;;;17.65;13.02;;;;;;;8.85;71.15;99410.91;4909014;28;98873;-68
2020/12/10 10:46:09;;;;;;;16.45;12.80;;;;;;;8.97;71.22;99411.16;4941972;28;98525;-67
2020/12/10 10:48:36;;;;;;;18.00;12.02;;;;;;;8.90;70.97;99411.50;4943259;28;96978;-68
2020/12/10 10:51:02;;;;;;;22.05;15.52;;;;;;;8.81;70.88;99411.19;4940589;28;97310;-68
2020/12/10 10:53:29;;;;;;;19.05;14.40;;;;;;;8.98;71.12;99402.44;4943644;28;97605;-68
2020/12/10 10:55:56;;;;;;;21.50;13.95;;;;;;;9.04;71.09;99402.06;4940444;28;98431;-68
2020/12/10 10:58:23;;;;;;;22.92;15.15;;;;;;;8.97;71.13;99405.94;4944986;28;101150;-68
2020/12/10 11:01:06;;;;;;;23.13;14.63;;;;;;;9.09;70.92;99400.88;4942239;28;96759;-68
2020/12/10 11:03:33;;;;;;;21.77;13.82;;;;;;;9.14;70.66;99403.22;4943530;28;99786;-68
2020/12/10 11:06:16;;;;;;;23.63;13.50;;;;;;;9.09;71.13;99398.28;4926996;28;99420;-68
2020/12/10 11:08:43;;;;;;;23.60;15.23;;;;;;;9.06;71.17;99397.63;4927259;28;99831;-68
2020/12/10 11:11:09;;;;;;;26.35;17.73;;;;;;;9.18;70.80;99399.53;4930597;28;96961;-68
2020/12/10 11:13:37;;;;;;;25.08;17.08;;;;;;;9.25;70.77;99395.63;4940949;28;99727;-68
2020/12/10 11:16:03;;;;;;;22.27;13.70;;;;;;;9.19;71.17;99393.41;4941888;28;99820;-69
2020/12/10 11:18:29;;;;;;;18.63;14.38;;;;;;;9.30;70.75;99387.56;4945605;28;98572;-68
2020/12/10 11:20:57;;;;;;;23.63;14.80;;;;;;;9.17;70.79;99390.91;4939944;28;97217;-68
2020/12/10 11:23:24;;;;;;;21.25;14.52;;;;;;;9.12;70.65;99384.28;4929058;28;98711;-68
2020/12/10 11:26:11;;;;;;;22.67;14.00;;;;;;;9.08;71.09;99385.38;4941709;28;98499;-69
2020/12/10 11:28:38;;;;;;;26.17;14.75;;;;;;;9.15;70.86;99384.94;4943638;28;96835;-68
2020/12/10 11:31:04;;;;;;;21.75;16.13;;;;;;;9.27;71.02;99382.53;4945609;28;98067;-68
2020/12/10 11:33:31;;;;;;;19.63;13.70;;;;;;;9.29;70.61;99384.13;4922020;28;98572;-68
2020/12/10 11:36:01;;;;;;;20.70;14.30;;;;;;;9.40;70.05;99384.34;4941720;28;98698;-68
2020/12/10 11:38:28;;;;;;;25.55;15.98;;;;;;;9.29;70.64;99383.31;4942858;28;99268;-69
2020/12/10 11:40:54;;;;;;;25.10;17.98;;;;;;;9.32;70.63;99383.97;4942332;28;96932;-69
2020/12/10 11:43:21;;;;;;;24.05;16.08;;;;;;;9.39;70.66;99376.63;4946271;28;100141;-68
2020/12/10 11:45:50;;;;;;;25.00;15.70;;;;;;;9.36;70.27;99380.25;4946155;28;98551;-68
2020/12/10 11:48:22;;;;;;;23.17;15.20;;;;;;;9.44;70.14;99378.03;4940065;28;97823;-68